createdAt,value
2018-06-29T00:00:18.494Z,99039.27
2018-06-29T00:02:47.609Z,99045.22
2018-06-29T00:05:16.708Z,99046.22
2018-06-29T00:07:45.793Z,99049.94
2018-06-29T00:10:22.882Z,99045.69
2018-06-29T00:12:52.251Z,99052.42
2018-06-29T00:15:21.690Z,99050.06
2018-06-29T00:17:50.981Z,99051.00
2018-06-29T00:20:20.087Z,99049.22
2018-06-29T00:22:49.167Z,99044.84
2018-06-29T00:25:19.012Z,99047.98
2018-06-29T00:27:48.100Z,99051.80
2018-06-29T00:30:17.236Z,99043.81
2018-06-29T00:32:46.296Z,99047.97
2018-06-29T00:35:15.380Z,99047.97
2018-06-29T00:37:44.855Z,99046.39
2018-06-29T00:40:14.695Z,99049.30
2018-06-29T00:42:43.779Z,99046.16
2018-06-29T00:45:12.854Z,99046.95
2018-06-29T00:47:41.893Z,99048.53
2018-06-29T00:50:10.951Z,99049.09
2018-06-29T00:52:39.974Z,99046.50
2018-06-29T00:55:09.063Z,99045.05
2018-06-29T00:57:38.150Z,99049.75
2018-06-29T01:00:08.354Z,99041.02
2018-06-29T01:02:37.722Z,99043.24
2018-06-29T01:05:06.798Z,99039.10
2018-06-29T01:07:35.877Z,98948.73
2018-06-29T01:10:05.054Z,99038.08
2018-06-29T01:12:34.124Z,99036.17
2018-06-29T01:15:03.243Z,99039.66
2018-06-29T01:17:32.352Z,99044.15
2018-06-29T01:20:01.385Z,99044.46
2018-06-29T01:22:30.499Z,98948.28
2018-06-29T01:24:59.544Z,99044.83
2018-06-29T01:27:28.625Z,99050.42
2018-06-29T01:29:57.674Z,99049.53
2018-06-29T01:32:26.788Z,99059.61
2018-06-29T01:34:55.904Z,99056.27
2018-06-29T01:37:24.970Z,99060.06
2018-06-29T01:42:21.871Z,99059.34
2018-06-29T01:44:50.941Z,99063.89
2018-06-29T01:47:20.001Z,99055.67
2018-06-29T01:49:49.120Z,99049.31
2018-06-29T01:52:18.275Z,99038.97
2018-06-29T01:54:47.416Z,99030.44
2018-06-29T01:57:16.543Z,99029.09
2018-06-29T01:59:45.562Z,99030.89
2018-06-29T02:02:14.646Z,99031.01
2018-06-29T02:04:43.788Z,99033.79
2018-06-29T02:07:12.895Z,99029.56
2018-06-29T02:09:41.918Z,99029.02
2018-06-29T02:12:12.247Z,99030.41
2018-06-29T02:14:41.369Z,99027.17
2018-06-29T02:17:10.435Z,99023.23
2018-06-29T02:19:39.529Z,99028.86
2018-06-29T02:22:08.730Z,99034.91
2018-06-29T02:24:37.828Z,99023.34
2018-06-29T02:27:07.191Z,99008.89
2018-06-29T02:29:37.042Z,99007.58
2018-06-29T02:32:06.146Z,98998.02
2018-06-29T02:34:35.451Z,99003.06
2018-06-29T02:37:04.622Z,99000.16
2018-06-29T02:39:33.730Z,98995.22
2018-06-29T02:42:02.770Z,98937.17
2018-06-29T02:44:31.818Z,98987.26
2018-06-29T02:47:00.931Z,98987.61
2018-06-29T02:49:30.082Z,98983.77
2018-06-29T02:51:59.186Z,98974.91
2018-06-29T02:54:28.277Z,98974.59
2018-06-29T02:56:57.354Z,98971.91
2018-06-29T02:59:26.410Z,98974.25
2018-06-29T03:01:55.454Z,98974.81
2018-06-29T03:04:24.525Z,98976.91
2018-06-29T03:06:53.567Z,98980.16
2018-06-29T03:09:23.214Z,98984.43
2018-06-29T03:11:52.303Z,98980.91
2018-06-29T03:14:21.405Z,98984.95
2018-06-29T03:16:50.543Z,98982.59
2018-06-29T03:19:19.610Z,98979.13
2018-06-29T03:21:48.921Z,98981.50
2018-06-29T03:24:18.361Z,98980.64
2018-06-29T03:26:47.433Z,98983.73
2018-06-29T03:29:16.474Z,98989.12
2018-06-29T03:31:45.578Z,98992.80
2018-06-29T03:34:14.675Z,98990.22
2018-06-29T03:36:43.842Z,98983.15
2018-06-29T03:39:12.901Z,98988.97
2018-06-29T03:41:42.045Z,98992.55
2018-06-29T03:44:11.054Z,98995.45
2018-06-29T03:46:40.186Z,98991.50
2018-06-29T03:49:09.254Z,98988.56
2018-06-29T03:51:38.329Z,98991.39
2018-06-29T03:54:07.420Z,98987.72
2018-06-29T03:56:36.530Z,98991.20
2018-06-29T03:59:05.678Z,98992.98
2018-06-29T04:01:34.730Z,98992.38
2018-06-29T04:04:03.884Z,98993.08
2018-06-29T04:06:32.926Z,98994.52
2018-06-29T04:09:02.082Z,98992.02
2018-06-29T04:11:31.193Z,98991.33
2018-06-29T04:14:00.255Z,98985.60
2018-06-29T04:16:29.359Z,98988.88
2018-06-29T04:18:58.484Z,98982.01
2018-06-29T04:21:28.278Z,98989.88
2018-06-29T04:23:57.411Z,98986.84
2018-06-29T04:26:26.635Z,98983.19
2018-06-29T04:28:55.735Z,98983.52
2018-06-29T04:31:24.838Z,98978.59
2018-06-29T04:33:53.951Z,98984.31
2018-06-29T04:36:22.970Z,98988.11
2018-06-29T04:38:52.042Z,98984.30
2018-06-29T04:41:21.085Z,98980.28
2018-06-29T04:43:50.362Z,98978.05
2018-06-29T04:46:19.474Z,98987.03
2018-06-29T04:48:48.638Z,98980.56
2018-06-29T04:51:17.825Z,98981.25
2018-06-29T04:53:46.930Z,98979.02
2018-06-29T04:56:16.066Z,98981.84
2018-06-29T04:58:45.213Z,98981.05
2018-06-29T05:01:14.289Z,98986.91
2018-06-29T05:03:43.869Z,98984.98
2018-06-29T05:06:13.017Z,98982.16
2018-06-29T05:08:42.186Z,98983.61
2018-06-29T05:11:11.185Z,98991.36
2018-06-29T05:13:40.254Z,98992.02
2018-06-29T05:16:09.329Z,98987.78
2018-06-29T05:18:38.420Z,98988.23
2018-06-29T05:21:07.565Z,98790.01
2018-06-29T05:23:36.608Z,98998.84
2018-06-29T05:26:05.746Z,99000.33
2018-06-29T05:28:34.841Z,99001.81
2018-06-29T05:31:03.852Z,99008.89
2018-06-29T05:33:32.909Z,99005.33
2018-06-29T05:36:02.134Z,99012.72
2018-06-29T05:38:31.238Z,99011.38
2018-06-29T05:41:00.458Z,99009.92
2018-06-29T05:43:29.501Z,99007.58
2018-06-29T05:45:58.600Z,99003.88
2018-06-29T05:48:27.653Z,99005.67
2018-06-29T05:50:56.745Z,99000.16
2018-06-29T05:53:25.790Z,98998.36
2018-06-29T05:55:55.162Z,98995.46
2018-06-29T05:58:24.336Z,98999.59
2018-06-29T06:00:53.532Z,98991.20
2018-06-29T06:03:22.637Z,98999.62
2018-06-29T06:05:51.727Z,99005.31
2018-06-29T06:08:20.822Z,98997.92
2018-06-29T06:10:49.914Z,98995.24
2018-06-29T06:13:19.027Z,98991.77
2018-06-29T06:15:48.167Z,98991.86
2018-06-29T06:18:17.310Z,98993.19
2018-06-29T06:20:46.359Z,98998.37
2018-06-29T06:23:17.593Z,98999.47
2018-06-29T06:25:46.889Z,99003.77
2018-06-29T06:28:16.410Z,99008.24
2018-06-29T06:30:45.472Z,99001.72
2018-06-29T06:33:14.580Z,99000.95
2018-06-29T06:35:43.682Z,99010.37
2018-06-29T06:38:12.982Z,99008.69
2018-06-29T06:40:42.104Z,99005.66
2018-06-29T06:43:11.129Z,99009.95
2018-06-29T06:45:40.250Z,99010.61
2018-06-29T06:48:09.560Z,99013.83
2018-06-29T06:50:38.709Z,99012.09
2018-06-29T06:53:07.945Z,99014.88
2018-06-29T06:55:37.454Z,99020.83
2018-06-29T06:58:06.608Z,99020.17
2018-06-29T07:00:35.739Z,98963.16
2018-06-29T07:03:05.165Z,99020.17
2018-06-29T07:05:34.243Z,99014.98
2018-06-29T07:08:04.183Z,99016.33
2018-06-29T07:10:33.369Z,99020.71
2018-06-29T07:13:02.495Z,99014.52
2018-06-29T07:15:31.583Z,99020.36
2018-06-29T07:18:00.697Z,99010.05
2018-06-29T07:20:29.806Z,99015.63
2018-06-29T07:22:59.039Z,99017.41
2018-06-29T07:25:28.172Z,99009.97
2018-06-29T07:27:57.273Z,99004.38
2018-06-29T07:30:26.344Z,99005.81
2018-06-29T07:32:56.970Z,99008.39
2018-06-29T07:35:26.134Z,99008.88
2018-06-29T07:37:55.240Z,99008.43
2018-06-29T07:40:24.270Z,99007.06
2018-06-29T07:42:53.412Z,99009.73
2018-06-29T07:45:22.606Z,99005.23
2018-06-29T07:47:51.646Z,98994.86
2018-06-29T07:50:20.754Z,99003.05
2018-06-29T07:52:49.898Z,99000.73
2018-06-29T07:55:18.996Z,98996.78
2018-06-29T07:57:48.426Z,98999.08
2018-06-29T08:00:17.585Z,99003.05
2018-06-29T08:02:46.881Z,99007.97
2018-06-29T08:05:15.911Z,99007.34
2018-06-29T08:07:45.221Z,99013.97
2018-06-29T08:10:14.283Z,99012.80
2018-06-29T08:12:43.478Z,99011.58
2018-06-29T08:15:12.544Z,99005.66
2018-06-29T08:17:41.681Z,99010.47
2018-06-29T08:20:10.734Z,99011.92
2018-06-29T08:22:39.894Z,99014.37
2018-06-29T08:25:13.244Z,99004.62
2018-06-29T08:27:42.670Z,99007.75
2018-06-29T08:30:12.606Z,99002.23
2018-06-29T08:32:41.664Z,99015.36
2018-06-29T08:35:11.244Z,99013.24
2018-06-29T08:37:40.715Z,99015.53
2018-06-29T08:40:10.182Z,99018.31
2018-06-29T08:42:39.340Z,99012.81
2018-06-29T08:45:09.278Z,98910.15
2018-06-29T08:47:39.057Z,99010.11
2018-06-29T08:50:08.090Z,99007.40
2018-06-29T08:52:37.213Z,99005.57
2018-06-29T08:55:06.371Z,99003.28
2018-06-29T08:57:35.526Z,99000.48
2018-06-29T09:00:06.187Z,98996.34
2018-06-29T09:02:35.455Z,98985.92
2018-06-29T09:05:05.075Z,98986.30
2018-06-29T09:07:34.679Z,98988.75
2018-06-29T09:10:03.767Z,98992.61
2018-06-29T09:12:32.877Z,98986.22
2018-06-29T09:15:02.005Z,98977.39
2018-06-29T09:17:31.223Z,98980.56
2018-06-29T09:20:00.366Z,98977.30
2018-06-29T09:22:29.465Z,98976.85
2018-06-29T09:24:58.579Z,98975.09
2018-06-29T09:27:27.699Z,98981.69
2018-06-29T09:29:56.833Z,98980.45
2018-06-29T09:32:25.895Z,98971.70
2018-06-29T09:34:55.029Z,98980.55
2018-06-29T09:37:24.081Z,98979.00
2018-06-29T09:39:53.431Z,98970.25
2018-06-29T09:42:22.523Z,98966.01
2018-06-29T09:44:51.661Z,98964.78
2018-06-29T09:47:20.755Z,98964.50
2018-06-29T09:49:49.845Z,98966.67
2018-06-29T09:52:18.964Z,98969.86
2018-06-29T09:54:48.011Z,98969.86
2018-06-29T09:57:17.094Z,98963.76
2018-06-29T09:59:46.380Z,98963.36
2018-06-29T10:02:15.524Z,98966.31
2018-06-29T10:04:44.940Z,98959.60
2018-06-29T10:07:13.998Z,98957.97
2018-06-29T10:09:43.256Z,98959.41
2018-06-29T10:12:13.492Z,98624.02
2018-06-29T10:14:42.882Z,98948.34
2018-06-29T10:17:11.975Z,98948.27
2018-06-29T10:19:41.231Z,98939.02
2018-06-29T10:22:10.335Z,98945.12
2018-06-29T10:24:39.981Z,98942.91
2018-06-29T10:27:09.080Z,98944.68
2018-06-29T10:29:39.651Z,98833.55
2018-06-29T10:32:09.345Z,98950.50
2018-06-29T10:34:38.621Z,98940.90
2018-06-29T10:37:08.439Z,98938.31
2018-06-29T10:39:38.057Z,98935.67
2018-06-29T10:42:07.653Z,98937.44
2018-06-29T10:44:36.809Z,98934.20
2018-06-29T10:47:05.894Z,98926.50
2018-06-29T10:49:34.990Z,98925.33
2018-06-29T10:52:04.122Z,98922.81
2018-06-29T10:54:33.268Z,98921.10
2018-06-29T10:57:02.321Z,98915.88
2018-06-29T10:59:31.406Z,98928.08
2018-06-29T11:02:00.500Z,98922.24
2018-06-29T11:04:29.654Z,98918.09
2018-06-29T11:06:58.723Z,98911.27
2018-06-29T11:09:27.793Z,98906.91
2018-06-29T11:11:57.010Z,98909.54
2018-06-29T11:14:26.081Z,98907.70
2018-06-29T11:16:55.387Z,98901.73
2018-06-29T11:19:24.429Z,98898.05
2018-06-29T11:21:53.580Z,98891.60
2018-06-29T11:24:22.791Z,98892.82
2018-06-29T11:26:52.175Z,98891.84
2018-06-29T11:29:21.277Z,98892.25
2018-06-29T11:31:50.399Z,98887.99
2018-06-29T11:34:19.565Z,98889.95
2018-06-29T11:36:48.693Z,98895.96
2018-06-29T11:39:17.722Z,98892.25
2018-06-29T11:41:46.845Z,98875.89
2018-06-29T11:44:16.073Z,98873.45
2018-06-29T11:46:45.104Z,98873.03
2018-06-29T11:49:14.162Z,98871.44
2018-06-29T11:51:44.266Z,98877.81
2018-06-29T11:54:13.382Z,98869.41
2018-06-29T11:56:42.514Z,98824.69
2018-06-29T11:59:11.767Z,98872.17
2018-06-29T12:01:40.850Z,98862.48
2018-06-29T12:04:09.933Z,98859.50
2018-06-29T12:06:38.989Z,98862.88
2018-06-29T12:09:09.977Z,98860.70
2018-06-29T12:11:40.419Z,98868.72
2018-06-29T12:14:09.565Z,98867.05
2018-06-29T12:16:38.641Z,98857.21
2018-06-29T12:19:07.696Z,98864.02
2018-06-29T12:21:37.072Z,98869.30
2018-06-29T12:24:06.169Z,98858.78
2018-06-29T12:26:35.210Z,98857.77
2018-06-29T12:29:04.421Z,98855.05
2018-06-29T12:31:33.539Z,98858.80
2018-06-29T12:34:02.642Z,98859.79
2018-06-29T12:36:31.764Z,98853.52
2018-06-29T12:39:00.800Z,98841.04
2018-06-29T12:41:29.941Z,98849.69
2018-06-29T12:43:59.013Z,98841.41
2018-06-29T12:46:28.169Z,98835.15
2018-06-29T12:48:57.327Z,98833.94
2018-06-29T12:51:26.656Z,98836.72
2018-06-29T12:53:55.733Z,98837.38
2018-06-29T12:56:24.900Z,98837.54
2018-06-29T12:58:54.034Z,98836.05
2018-06-29T13:01:23.185Z,98832.59
2018-06-29T13:03:52.220Z,98837.64
2018-06-29T13:06:21.434Z,98840.17
2018-06-29T13:08:50.517Z,98830.27
2018-06-29T13:11:19.636Z,98835.56
2018-06-29T13:13:48.827Z,98831.98
2018-06-29T13:16:17.907Z,98832.54
2018-06-29T13:18:47.005Z,98829.78
2018-06-29T13:21:16.174Z,98829.94
2018-06-29T13:23:45.298Z,98830.16
2018-06-29T13:26:14.389Z,98833.27
2018-06-29T13:28:43.564Z,98829.33
2018-06-29T13:31:12.680Z,98828.19
2018-06-29T13:33:41.941Z,98834.44
2018-06-29T13:36:11.118Z,98824.63
2018-06-29T13:38:40.148Z,98825.59
2018-06-29T13:41:09.269Z,98822.79
2018-06-29T13:43:38.427Z,98824.20
2018-06-29T13:46:07.610Z,98820.75
2018-06-29T13:48:36.759Z,98816.28
2018-06-29T13:51:05.860Z,98814.79
2018-06-29T13:53:35.572Z,98806.24
2018-06-29T13:56:04.728Z,98801.47
2018-06-29T13:58:33.886Z,98801.36
2018-06-29T14:01:02.923Z,98804.39
2018-06-29T14:03:32.275Z,98801.75
2018-06-29T14:06:01.334Z,98796.73
2018-06-29T14:08:30.661Z,98796.80
2018-06-29T14:10:59.760Z,98791.29
2018-06-29T14:13:28.942Z,98771.45
2018-06-29T14:15:58.115Z,98792.44
2018-06-29T14:18:27.154Z,98795.58
2018-06-29T14:20:56.611Z,98785.87
2018-06-29T14:23:25.735Z,98782.91
2018-06-29T14:25:54.830Z,98782.54
2018-06-29T14:28:23.914Z,98773.09
2018-06-29T14:30:53.008Z,98774.55
2018-06-29T14:33:22.229Z,98772.42
2018-06-29T14:35:51.171Z,98767.22
2018-06-29T14:38:20.376Z,98784.05
2018-06-29T14:40:49.554Z,98783.84
2018-06-29T14:43:18.555Z,98771.75
2018-06-29T14:45:47.738Z,98766.17
2018-06-29T14:48:17.771Z,98769.45
2018-06-29T14:50:46.929Z,98753.68
2018-06-29T14:53:15.983Z,98761.63
2018-06-29T14:55:46.154Z,98751.13
2018-06-29T14:58:15.231Z,98753.00
2018-06-29T15:00:44.297Z,98744.43
2018-06-29T15:03:13.497Z,98747.33
2018-06-29T15:05:43.773Z,98740.77
2018-06-29T15:08:12.923Z,98741.70
2018-06-29T15:10:41.968Z,98736.83
2018-06-29T15:13:11.511Z,98741.02
2018-06-29T15:15:40.675Z,98741.63
2018-06-29T15:18:09.749Z,98734.16
2018-06-29T15:20:38.871Z,98731.66
2018-06-29T15:23:08.011Z,98730.86
2018-06-29T15:25:37.075Z,98736.56
2018-06-29T15:28:07.033Z,98737.27
2018-06-29T15:30:36.093Z,98737.97
2018-06-29T15:33:05.294Z,98740.12
2018-06-29T15:35:34.382Z,98731.32
2018-06-29T15:38:04.345Z,98728.92
2018-06-29T15:40:33.721Z,98726.42
2018-06-29T15:43:02.862Z,98722.85
2018-06-29T15:45:31.967Z,98725.80
2018-06-29T15:48:01.038Z,98724.51
2018-06-29T15:50:30.125Z,98728.34
2018-06-29T15:52:59.239Z,98721.52
2018-06-29T15:55:28.313Z,98719.39
2018-06-29T15:57:57.539Z,98725.23
2018-06-29T16:00:26.652Z,98726.52
2018-06-29T16:02:55.764Z,98720.03
2018-06-29T16:05:24.868Z,98719.05
2018-06-29T16:07:54.137Z,98710.72
2018-06-29T16:10:23.329Z,98716.74
2018-06-29T16:12:52.846Z,98693.75
2018-06-29T16:15:22.070Z,98707.63
2018-06-29T16:17:51.304Z,98711.43
2018-06-29T16:20:20.426Z,98714.05
2018-06-29T16:22:49.507Z,98703.23
2018-06-29T16:25:18.619Z,98693.42
2018-06-29T16:27:47.800Z,98697.30
2018-06-29T16:30:16.973Z,98693.54
2018-06-29T16:32:46.093Z,98693.15
2018-06-29T16:35:15.295Z,98689.08
2018-06-29T16:37:45.027Z,98700.24
2018-06-29T16:40:14.847Z,98695.75
2018-06-29T16:42:43.927Z,98692.16
2018-06-29T16:45:13.076Z,98693.45
2018-06-29T16:47:42.170Z,98690.50
2018-06-29T16:50:11.374Z,98695.61
2018-06-29T16:52:40.449Z,98692.30
2018-06-29T16:55:09.592Z,98696.25
2018-06-29T16:57:38.687Z,98698.98
2018-06-29T17:00:08.271Z,98694.48
2018-06-29T17:02:37.657Z,98699.67
2018-06-29T17:05:06.708Z,98692.24
2018-06-29T17:07:35.846Z,98695.08
2018-06-29T17:10:05.154Z,98690.39
2018-06-29T17:12:34.576Z,98687.05
2018-06-29T17:15:03.742Z,98693.30
2018-06-29T17:17:32.840Z,98687.30
2018-06-29T17:20:02.897Z,98698.59
2018-06-29T17:22:32.083Z,98699.39
2018-06-29T17:25:01.137Z,98694.66
2018-06-29T17:27:30.257Z,98690.64
2018-06-29T17:29:59.708Z,98695.30
2018-06-29T17:32:28.890Z,98697.79
2018-06-29T17:34:57.959Z,98695.47
2018-06-29T17:37:27.079Z,98690.64
2018-06-29T17:39:56.190Z,98696.84
2018-06-29T17:42:25.314Z,98696.03
2018-06-29T17:44:55.395Z,98694.02
2018-06-29T17:47:24.487Z,98686.69
2018-06-29T17:49:53.539Z,98692.19
2018-06-29T17:52:22.759Z,98691.56
2018-06-29T17:54:51.791Z,98689.02
2018-06-29T17:57:20.855Z,98694.21
2018-06-29T17:59:49.974Z,98691.53
2018-06-29T18:02:19.067Z,98687.80
2018-06-29T18:04:48.113Z,98691.02
2018-06-29T18:07:17.206Z,98692.83
2018-06-29T18:09:46.346Z,98689.02
2018-06-29T18:12:15.551Z,98691.16
2018-06-29T18:14:44.682Z,98689.20
2018-06-29T18:17:13.749Z,98693.29
2018-06-29T18:19:42.869Z,98694.86
2018-06-29T18:22:11.958Z,98691.18
2018-06-29T18:24:41.183Z,98688.78
2018-06-29T18:27:10.239Z,98690.52
2018-06-29T18:29:44.982Z,98682.34
2018-06-29T18:32:14.185Z,98680.03
2018-06-29T18:34:43.349Z,98679.78
2018-06-29T18:37:12.440Z,98684.66
2018-06-29T18:39:41.526Z,98683.45
2018-06-29T18:42:10.600Z,98655.48
2018-06-29T18:44:40.774Z,98690.59
2018-06-29T18:47:10.059Z,98683.37
2018-06-29T18:49:39.377Z,98682.21
2018-06-29T18:52:08.433Z,98681.27
2018-06-29T18:54:37.544Z,98677.63
2018-06-29T18:57:06.570Z,98676.68
2018-06-29T18:59:35.683Z,98679.75
2018-06-29T19:02:04.821Z,98679.55
2018-06-29T19:04:34.092Z,98678.53
2018-06-29T19:07:03.193Z,98684.19
2018-06-29T19:09:32.381Z,98685.17
2018-06-29T19:12:01.481Z,98685.58
2018-06-29T19:14:30.660Z,98684.83
2018-06-29T19:16:59.774Z,98680.73
2018-06-29T19:19:28.830Z,98680.97
2018-06-29T19:21:57.964Z,98687.23
2018-06-29T19:24:27.115Z,98689.18
2018-06-29T19:26:56.238Z,98689.38
2018-06-29T19:29:25.328Z,98695.84
2018-06-29T19:31:54.478Z,98693.17
2018-06-29T19:34:23.558Z,98698.88
2018-06-29T19:36:52.795Z,98696.16
2018-06-29T19:39:21.914Z,98667.84
2018-06-29T19:41:51.182Z,98690.92
2018-06-29T19:44:20.314Z,98695.62
2018-06-29T19:46:49.476Z,98690.00
2018-06-29T19:49:18.690Z,98693.31
2018-06-29T19:51:47.853Z,98692.51
2018-06-29T19:54:16.986Z,98699.89
2018-06-29T19:56:46.121Z,98693.25
2018-06-29T19:59:15.248Z,98711.27
2018-06-29T20:01:44.481Z,98714.32
2018-06-29T20:04:13.595Z,98711.36
2018-06-29T20:06:43.084Z,98709.58
2018-06-29T20:09:13.503Z,98313.91
2018-06-29T20:11:42.692Z,98711.46
2018-06-29T20:14:13.813Z,98713.75
2018-06-29T20:16:43.043Z,98713.53
2018-06-29T20:19:12.172Z,98718.36
2018-06-29T20:21:41.418Z,98714.17
2018-06-29T20:24:10.455Z,98712.98
2018-06-29T20:26:39.530Z,98718.85
2018-06-29T20:29:08.595Z,98717.71
2018-06-29T20:31:37.768Z,98720.17
2018-06-29T20:34:06.905Z,98722.38
2018-06-29T20:36:35.999Z,98724.17
2018-06-29T20:39:08.059Z,98720.53
2018-06-29T20:41:37.114Z,98722.09
2018-06-29T20:44:06.492Z,98723.65
2018-06-29T20:46:35.668Z,98729.72
2018-06-29T20:49:04.882Z,98732.98
2018-06-29T20:51:33.997Z,98733.94
2018-06-29T20:54:03.406Z,98731.60
2018-06-29T20:56:32.582Z,98733.27
2018-06-29T20:59:03.498Z,98735.77
2018-06-29T21:01:32.622Z,98732.98
2018-06-29T21:04:01.807Z,98729.97
2018-06-29T21:06:31.346Z,98707.36
2018-06-29T21:09:01.005Z,98741.41
2018-06-29T21:11:30.162Z,98739.52
2018-06-29T21:13:59.353Z,98740.25
2018-06-29T21:16:28.391Z,98734.15
2018-06-29T21:18:57.502Z,98736.86
2018-06-29T21:21:26.628Z,98731.70
2018-06-29T21:23:55.713Z,98738.67
2018-06-29T21:26:24.938Z,98733.44
2018-06-29T21:28:54.054Z,98734.53
2018-06-29T21:31:23.158Z,98729.20
2018-06-29T21:33:52.635Z,98728.33
2018-06-29T21:36:21.805Z,98727.23
2018-06-29T21:38:50.921Z,98724.23
2018-06-29T21:41:20.169Z,98723.45
2018-06-29T21:43:49.336Z,98721.16
2018-06-29T21:46:22.142Z,98719.02
2018-06-29T21:48:52.975Z,98726.56
2018-06-29T21:51:22.102Z,98732.91
2018-06-29T21:53:51.134Z,98733.03
2018-06-29T21:56:20.425Z,98731.44
2018-06-29T21:58:49.539Z,98732.22
2018-06-29T22:01:18.675Z,98732.21
2018-06-29T22:03:47.738Z,98730.29
2018-06-29T22:06:16.910Z,98724.46
2018-06-29T22:08:46.162Z,98728.69
2018-06-29T22:11:15.872Z,98735.05
2018-06-29T22:13:44.968Z,98728.41
2018-06-29T22:16:14.303Z,98731.84
2018-06-29T22:18:44.253Z,98723.73
2018-06-29T22:21:13.560Z,98734.70
2018-06-29T22:23:42.737Z,98733.73
2018-06-29T22:26:11.848Z,98733.94
2018-06-29T22:28:41.061Z,98732.14
2018-06-29T22:31:10.186Z,98734.40
2018-06-29T22:33:39.241Z,98731.70
2018-06-29T22:36:08.369Z,98731.27
2018-06-29T22:38:37.586Z,98735.66
2018-06-29T22:41:06.715Z,98732.33
2018-06-29T22:43:35.835Z,98738.25
2018-06-29T22:46:04.934Z,98741.08
2018-06-29T22:48:34.446Z,98737.56
2018-06-29T22:51:03.537Z,98736.91
2018-06-29T22:53:32.682Z,98743.94
2018-06-29T22:56:02.009Z,98742.63
2018-06-29T22:58:31.212Z,98741.45
2018-06-29T23:01:00.478Z,98743.83
2018-06-29T23:03:34.832Z,98746.45
2018-06-29T23:06:03.946Z,98747.11
2018-06-29T23:08:33.062Z,98745.39
2018-06-29T23:11:02.133Z,98745.38
2018-06-29T23:13:31.209Z,98736.59
2018-06-29T23:16:00.273Z,98734.66
2018-06-29T23:18:29.661Z,98740.47
2018-06-29T23:20:58.753Z,98738.63
2018-06-29T23:23:28.017Z,98738.63
2018-06-29T23:25:57.422Z,98740.56
2018-06-29T23:28:26.568Z,98739.14
2018-06-29T23:30:56.031Z,98740.25
2018-06-29T23:33:25.247Z,98738.67
2018-06-29T23:35:54.469Z,98745.05
2018-06-29T23:38:23.557Z,98742.39
2018-06-29T23:40:52.648Z,98738.19
2018-06-29T23:43:21.720Z,98743.80
2018-06-29T23:45:50.846Z,98734.30
2018-06-29T23:48:20.002Z,98738.36
2018-06-29T23:50:49.094Z,98735.25
2018-06-29T23:53:18.148Z,98734.69
2018-06-29T23:55:47.272Z,98731.33
2018-06-29T23:58:16.384Z,98731.42
